createdAt,value
2018-08-03T00:01:37.967Z,73.50
2018-08-03T00:04:06.039Z,73.60
2018-08-03T00:06:34.113Z,73.70
2018-08-03T00:09:02.580Z,73.60
2018-08-03T00:11:30.666Z,73.90
2018-08-03T00:13:58.754Z,74.40
2018-08-03T00:16:26.815Z,74.20
2018-08-03T00:18:54.907Z,74.20
2018-08-03T00:23:50.938Z,74.60
2018-08-03T00:28:46.882Z,74.90
2018-08-03T00:31:15.019Z,74.90
2018-08-03T00:33:43.058Z,75.20
2018-08-03T00:36:11.129Z,75.30
2018-08-03T00:38:39.236Z,75.60
2018-08-03T00:41:07.330Z,75.70
2018-08-03T00:43:35.417Z,76.00
2018-08-03T00:46:03.761Z,76.70
2018-08-03T00:48:31.845Z,76.70
2018-08-03T00:51:00.027Z,77.20
2018-08-03T00:53:28.088Z,77.20
2018-08-03T00:55:56.261Z,77.50
2018-08-03T00:58:24.741Z,77.60
2018-08-03T01:00:52.820Z,77.50
2018-08-03T01:03:21.016Z,77.60
2018-08-03T01:05:49.099Z,77.60
2018-08-03T01:08:17.246Z,77.50
2018-08-03T01:10:45.347Z,77.80
2018-08-03T01:13:13.414Z,78.00
2018-08-03T01:15:41.527Z,78.00
2018-08-03T01:18:09.615Z,77.90
2018-08-03T01:20:37.781Z,77.80
2018-08-03T01:23:05.874Z,78.30
2018-08-03T01:25:33.945Z,78.30
2018-08-03T01:28:02.050Z,78.40
2018-08-03T01:30:30.165Z,78.60
2018-08-03T01:32:58.243Z,78.70
2018-08-03T01:35:26.651Z,78.60
2018-08-03T01:37:54.819Z,78.50
2018-08-03T01:40:22.794Z,78.40
2018-08-03T01:42:50.890Z,78.40
2018-08-03T01:47:47.091Z,78.50
2018-08-03T01:50:15.178Z,78.40
2018-08-03T01:52:43.250Z,79.10
2018-08-03T01:55:11.362Z,79.10
2018-08-03T01:57:39.450Z,78.90
2018-08-03T02:00:07.784Z,78.90
2018-08-03T02:05:03.742Z,79.40
2018-08-03T02:07:31.866Z,78.70
2018-08-03T02:09:59.940Z,78.60
2018-08-03T02:12:28.023Z,78.50
2018-08-03T02:14:56.090Z,79.20
2018-08-03T02:17:24.158Z,78.50
2018-08-03T02:19:52.251Z,78.60
2018-08-03T02:22:20.374Z,78.60
2018-08-03T02:24:48.490Z,79.30
2018-08-03T02:27:16.666Z,78.50
2018-08-03T02:29:44.820Z,79.00
2018-08-03T02:32:12.910Z,79.10
2018-08-03T02:34:40.982Z,79.10
2018-08-03T02:37:09.141Z,79.10
2018-08-03T02:39:37.232Z,79.10
2018-08-03T02:42:05.374Z,79.20
2018-08-03T02:44:33.460Z,79.30
2018-08-03T02:47:01.547Z,79.60
2018-08-03T02:49:29.623Z,79.90
2018-08-03T02:51:57.698Z,80.00
2018-08-03T02:54:25.782Z,80.10
2018-08-03T02:56:53.852Z,80.40
2018-08-03T02:59:22.200Z,81.30
2018-08-03T03:01:50.298Z,81.20
2018-08-03T03:04:18.390Z,82.00
2018-08-03T03:06:46.505Z,81.70
2018-08-03T03:09:14.571Z,81.60
2018-08-03T03:11:42.971Z,81.50
2018-08-03T03:14:11.069Z,81.50
2018-08-03T03:16:39.149Z,81.50
2018-08-03T03:19:07.225Z,81.60
2018-08-03T03:21:35.340Z,81.70
2018-08-03T03:24:03.450Z,82.00
2018-08-03T03:26:31.533Z,82.30
2018-08-03T03:28:59.646Z,82.60
2018-08-03T03:31:27.729Z,82.70
2018-08-03T03:33:55.831Z,82.80
2018-08-03T03:36:23.902Z,82.90
2018-08-03T03:38:51.978Z,83.00
2018-08-03T03:41:20.094Z,83.10
2018-08-03T03:43:48.160Z,83.20
2018-08-03T03:46:16.255Z,83.20
2018-08-03T03:48:44.646Z,83.50
2018-08-03T03:51:12.714Z,83.50
2018-08-03T03:56:08.722Z,83.60
2018-08-03T03:58:36.767Z,83.60
2018-08-03T04:01:04.884Z,83.50
2018-08-03T04:03:33.104Z,83.60
2018-08-03T04:06:01.155Z,83.50
2018-08-03T04:08:29.254Z,83.70
2018-08-03T04:10:57.366Z,83.60
2018-08-03T04:13:25.434Z,84.00
2018-08-03T04:15:53.534Z,83.70
2018-08-03T04:18:22.380Z,83.60
2018-08-03T04:20:51.882Z,83.60
2018-08-03T04:23:20.498Z,83.80
2018-08-03T04:25:48.598Z,84.10
2018-08-03T04:28:16.694Z,83.90
2018-08-03T04:30:44.760Z,85.00
2018-08-03T04:33:13.570Z,84.40
2018-08-03T04:35:41.719Z,84.60
2018-08-03T04:38:10.136Z,84.80
2018-08-03T04:40:38.302Z,84.90
2018-08-03T04:43:06.420Z,85.20
2018-08-03T04:45:34.516Z,86.10
2018-08-03T04:48:02.597Z,85.80
2018-08-03T04:50:30.977Z,85.50
2018-08-03T04:52:59.054Z,85.40
2018-08-03T04:55:27.190Z,85.30
2018-08-03T04:57:55.292Z,85.30
2018-08-03T05:00:23.675Z,85.30
2018-08-03T05:02:51.773Z,85.40
2018-08-03T05:05:19.869Z,85.30
2018-08-03T05:07:47.962Z,85.30
2018-08-03T05:10:16.044Z,85.30
2018-08-03T05:12:44.450Z,85.20
2018-08-03T05:15:12.558Z,85.10
2018-08-03T05:17:40.634Z,84.80
2018-08-03T05:20:08.890Z,84.70
2018-08-03T05:22:37.025Z,84.70
2018-08-03T05:25:05.694Z,85.40
2018-08-03T05:27:33.798Z,85.20
2018-08-03T05:30:02.116Z,85.10
2018-08-03T05:32:30.225Z,85.10
2018-08-03T05:34:58.374Z,84.90
2018-08-03T05:37:26.718Z,84.70
2018-08-03T05:39:54.815Z,84.70
2018-08-03T05:42:23.072Z,84.60
2018-08-03T05:47:19.078Z,84.80
2018-08-03T05:49:47.486Z,84.90
2018-08-03T05:52:15.605Z,84.80
2018-08-03T05:54:43.691Z,84.80
2018-08-03T05:57:11.782Z,84.70
2018-08-03T05:59:39.866Z,85.70
2018-08-03T06:02:08.342Z,85.50
2018-08-03T06:04:36.426Z,85.90
2018-08-03T06:07:04.519Z,84.90
2018-08-03T06:09:32.647Z,84.70
2018-08-03T06:12:00.765Z,84.40
2018-08-03T06:14:29.143Z,84.00
2018-08-03T06:16:57.254Z,83.40
2018-08-03T06:19:25.352Z,82.70
2018-08-03T06:21:53.455Z,82.10
2018-08-03T06:24:21.541Z,81.70
2018-08-03T06:26:49.890Z,81.20
2018-08-03T06:29:17.987Z,80.60
2018-08-03T06:31:46.167Z,80.10
2018-08-03T06:34:14.246Z,79.60
2018-08-03T06:36:42.366Z,79.70
2018-08-03T06:39:10.891Z,78.40
2018-08-03T06:41:38.994Z,78.10
2018-08-03T06:44:07.132Z,77.40
2018-08-03T06:46:35.223Z,77.20
2018-08-03T06:49:03.310Z,76.80
2018-08-03T06:51:31.744Z,76.30
2018-08-03T06:53:59.839Z,75.70
2018-08-03T06:56:28.100Z,75.00
2018-08-03T06:58:56.214Z,74.50
2018-08-03T07:01:24.286Z,74.00
2018-08-03T07:03:52.723Z,73.90
2018-08-03T07:06:20.945Z,73.50
2018-08-03T07:08:49.047Z,73.00
2018-08-03T07:11:17.190Z,72.40
2018-08-03T07:13:45.286Z,71.90
2018-08-03T07:16:17.578Z,71.70
2018-08-03T07:18:45.687Z,70.80
2018-08-03T07:21:13.942Z,70.90
2018-08-03T07:23:42.210Z,70.40
2018-08-03T07:26:10.292Z,70.10
2018-08-03T07:28:38.558Z,69.70
2018-08-03T07:31:06.638Z,68.90
2018-08-03T07:33:34.723Z,68.40
2018-08-03T07:36:02.794Z,67.60
2018-08-03T07:38:30.850Z,68.20
2018-08-03T07:40:58.949Z,66.80
2018-08-03T07:43:27.092Z,65.80
2018-08-03T07:45:55.160Z,65.30
2018-08-03T07:48:23.238Z,64.80
2018-08-03T07:50:51.314Z,64.60
2018-08-03T07:53:19.722Z,64.20
2018-08-03T07:55:47.819Z,63.20
2018-08-03T07:58:15.914Z,63.30
2018-08-03T08:00:44.119Z,63.00
2018-08-03T08:03:12.397Z,62.90
2018-08-03T08:05:40.459Z,62.90
2018-08-03T08:08:08.524Z,62.40
2018-08-03T08:10:36.896Z,61.60
2018-08-03T08:13:05.128Z,61.30
2018-08-03T08:15:33.340Z,60.80
2018-08-03T08:18:01.567Z,60.30
2018-08-03T08:20:29.787Z,60.30
2018-08-03T08:22:57.840Z,60.10
2018-08-03T08:25:25.906Z,59.40
2018-08-03T08:27:53.991Z,59.10
2018-08-03T08:30:22.143Z,59.10
2018-08-03T08:35:18.604Z,58.80
2018-08-03T08:37:46.693Z,58.60
2018-08-03T08:40:15.104Z,58.40
2018-08-03T08:42:43.182Z,58.20
2018-08-03T08:45:11.268Z,57.80
2018-08-03T08:47:39.731Z,57.70
2018-08-03T08:50:08.523Z,58.00
2018-08-03T08:52:36.623Z,57.60
2018-08-03T08:55:04.976Z,57.90
2018-08-03T08:57:33.354Z,56.80
2018-08-03T09:00:01.655Z,56.00
2018-08-03T09:02:29.758Z,55.90
2018-08-03T09:04:58.085Z,55.50
2018-08-03T09:07:26.222Z,55.40
2018-08-03T09:09:54.288Z,54.90
2018-08-03T09:12:22.419Z,55.10
2018-08-03T09:17:18.414Z,54.40
2018-08-03T09:19:46.612Z,54.60
2018-08-03T09:22:14.717Z,54.20
2018-08-03T09:24:42.796Z,53.80
2018-08-03T09:32:06.845Z,52.90
2018-08-03T09:34:34.942Z,52.70
2018-08-03T09:37:03.011Z,52.60
2018-08-03T09:39:31.107Z,52.20
2018-08-03T09:41:59.218Z,52.00
2018-08-03T09:46:55.303Z,50.90
2018-08-03T09:49:23.374Z,50.40
2018-08-03T09:51:51.448Z,50.50
2018-08-03T09:54:19.540Z,50.00
2018-08-03T09:59:15.509Z,49.40
2018-08-03T10:01:43.670Z,49.40
2018-08-03T10:04:11.746Z,48.70
2018-08-03T10:06:39.818Z,48.30
2018-08-03T10:14:04.550Z,47.40
2018-08-03T10:16:32.634Z,47.60
2018-08-03T10:19:00.838Z,47.20
2018-08-03T10:21:28.910Z,46.80
2018-08-03T10:23:57.016Z,46.50
2018-08-03T10:26:25.082Z,46.30
2018-08-03T10:28:53.558Z,46.80
2018-08-03T10:31:21.688Z,46.70
2018-08-03T10:33:49.947Z,46.30
2018-08-03T10:36:18.019Z,46.00
2018-08-03T10:38:46.218Z,45.90
2018-08-03T10:41:14.390Z,45.90
2018-08-03T10:43:42.504Z,45.20
2018-08-03T10:46:10.866Z,44.90
2018-08-03T10:48:38.986Z,44.30
2018-08-03T10:51:07.405Z,44.60
2018-08-03T10:53:35.530Z,44.10
2018-08-03T10:56:03.650Z,44.30
2018-08-03T10:58:31.748Z,44.40
2018-08-03T11:00:59.844Z,44.30
2018-08-03T11:03:28.275Z,44.10
2018-08-03T11:05:56.374Z,43.80
2018-08-03T11:08:24.514Z,43.40
2018-08-03T11:10:52.590Z,43.10
2018-08-03T11:13:20.662Z,43.00
2018-08-03T11:15:49.147Z,42.90
2018-08-03T11:18:17.226Z,42.90
2018-08-03T11:20:45.299Z,42.30
2018-08-03T11:23:13.370Z,42.30
2018-08-03T11:25:41.446Z,42.10
2018-08-03T11:28:09.771Z,41.90
2018-08-03T11:35:33.638Z,41.00
2018-08-03T11:38:01.697Z,41.10
2018-08-03T11:40:30.059Z,40.60
2018-08-03T11:42:58.142Z,40.60
2018-08-03T11:45:26.217Z,40.70
2018-08-03T11:47:54.376Z,40.70
2018-08-03T11:50:22.466Z,40.10
2018-08-03T11:52:50.942Z,40.00
2018-08-03T11:55:19.010Z,40.10
2018-08-03T11:57:47.102Z,39.10
2018-08-03T12:00:15.177Z,39.60
2018-08-03T12:02:43.298Z,39.80
2018-08-03T12:05:11.659Z,39.70
2018-08-03T12:07:39.746Z,39.70
2018-08-03T12:10:07.822Z,39.60
2018-08-03T12:12:35.981Z,40.00
2018-08-03T12:15:04.020Z,38.90
2018-08-03T12:17:32.372Z,38.60
2018-08-03T12:20:00.506Z,38.40
2018-08-03T12:22:28.603Z,37.60
2018-08-03T12:24:56.785Z,38.20
2018-08-03T12:27:24.839Z,38.50
2018-08-03T12:29:53.351Z,38.40
2018-08-03T12:32:21.458Z,38.30
2018-08-03T12:34:49.506Z,38.30
2018-08-03T12:37:17.795Z,38.30
2018-08-03T12:39:45.854Z,38.60
2018-08-03T12:42:14.217Z,38.60
2018-08-03T12:44:42.318Z,38.00
2018-08-03T12:49:39.495Z,37.90
2018-08-03T12:52:07.734Z,38.30
2018-08-03T12:54:35.807Z,38.30
2018-08-03T12:57:03.864Z,37.70
2018-08-03T12:59:31.986Z,37.20
2018-08-03T13:02:00.007Z,37.20
2018-08-03T13:04:28.118Z,37.30
2018-08-03T13:06:56.475Z,37.40
2018-08-03T13:09:24.576Z,37.60
2018-08-03T13:11:52.649Z,37.20
2018-08-03T13:14:20.732Z,37.20
2018-08-03T13:16:48.831Z,38.10
2018-08-03T13:19:17.241Z,37.60
2018-08-03T13:21:45.325Z,37.50
2018-08-03T13:24:13.551Z,37.40
2018-08-03T13:26:41.650Z,37.40
2018-08-03T13:29:09.706Z,37.30
2018-08-03T13:31:37.778Z,37.30
2018-08-03T13:34:06.003Z,37.00
2018-08-03T13:36:34.376Z,36.90
2018-08-03T13:39:02.576Z,36.90
2018-08-03T13:41:30.571Z,36.90
2018-08-03T13:43:58.652Z,37.00
2018-08-03T13:46:26.713Z,37.00
2018-08-03T13:51:22.658Z,37.70
2018-08-03T13:53:50.953Z,37.80
2018-08-03T13:56:19.178Z,37.70
2018-08-03T13:58:47.612Z,37.70
2018-08-03T14:01:26.967Z,37.70
2018-08-03T14:03:55.052Z,37.60
2018-08-03T14:06:23.581Z,37.20
2018-08-03T14:08:51.707Z,37.10
2018-08-03T14:11:20.178Z,37.00
2018-08-03T14:13:48.503Z,36.90
2018-08-03T14:16:16.638Z,36.50
2018-08-03T14:18:46.376Z,36.30
2018-08-03T14:23:42.480Z,36.00
2018-08-03T14:26:10.614Z,36.20
2018-08-03T14:28:38.711Z,35.90
2018-08-03T14:31:06.806Z,35.30
2018-08-03T14:33:34.852Z,35.10
2018-08-03T14:36:03.022Z,35.10
2018-08-03T14:38:31.064Z,34.70
2018-08-03T14:40:59.123Z,34.50
2018-08-03T14:43:27.562Z,34.20
2018-08-03T14:45:55.637Z,34.20
2018-08-03T14:48:23.769Z,33.80
2018-08-03T14:50:51.863Z,34.00
2018-08-03T14:53:19.995Z,32.80
2018-08-03T14:55:48.420Z,32.90
2018-08-03T14:58:16.524Z,33.00
2018-08-03T15:00:44.614Z,32.80
2018-08-03T15:03:12.674Z,32.50
2018-08-03T15:05:40.737Z,32.40
2018-08-03T15:08:08.843Z,32.20
2018-08-03T15:10:36.965Z,31.80
2018-08-03T15:13:05.259Z,31.50
2018-08-03T15:15:33.359Z,30.40
2018-08-03T15:18:01.424Z,31.00
2018-08-03T15:22:57.645Z,29.90
2018-08-03T15:25:25.718Z,29.80
2018-08-03T15:27:53.791Z,29.60
2018-08-03T15:30:21.862Z,29.30
2018-08-03T15:32:49.920Z,28.70
2018-08-03T15:35:18.085Z,28.20
2018-08-03T15:37:46.878Z,27.60
2018-08-03T15:40:14.975Z,27.20
2018-08-03T15:42:43.053Z,25.80
2018-08-03T15:45:11.127Z,25.90
2018-08-03T15:47:39.197Z,25.20
2018-08-03T15:50:07.278Z,25.80
2018-08-03T15:52:35.714Z,25.70
2018-08-03T15:55:03.809Z,24.90
2018-08-03T15:57:31.928Z,24.70
2018-08-03T15:59:59.991Z,24.60
2018-08-03T16:02:28.068Z,24.50
2018-08-03T16:04:56.482Z,24.30
2018-08-03T16:07:24.542Z,24.00
2018-08-03T16:09:52.590Z,24.10
2018-08-03T16:12:20.766Z,24.50
2018-08-03T16:14:48.834Z,24.40
2018-08-03T16:17:16.943Z,24.60
2018-08-03T16:19:45.213Z,24.60
2018-08-03T16:22:13.278Z,24.50
2018-08-03T16:24:41.400Z,24.50
2018-08-03T16:27:09.520Z,24.40
2018-08-03T16:29:37.575Z,24.50
2018-08-03T16:32:06.004Z,24.00
2018-08-03T16:34:34.076Z,23.70
2018-08-03T16:37:02.142Z,23.80
2018-08-03T16:39:30.219Z,23.80
2018-08-03T16:41:58.359Z,23.90
2018-08-03T16:44:26.478Z,23.90
2018-08-03T16:46:54.583Z,24.20
2018-08-03T16:49:22.666Z,25.10
2018-08-03T16:51:50.742Z,25.90
2018-08-03T16:54:19.171Z,26.70
2018-08-03T16:56:47.246Z,27.60
2018-08-03T16:59:15.318Z,28.40
2018-08-03T17:01:43.379Z,29.10
2018-08-03T17:04:11.477Z,29.60
2018-08-03T17:06:39.836Z,30.50
2018-08-03T17:09:08.934Z,31.10
2018-08-03T17:11:37.218Z,31.50
2018-08-03T17:14:05.335Z,32.10
2018-08-03T17:16:33.554Z,33.10
2018-08-03T17:19:01.625Z,34.20
2018-08-03T17:21:29.699Z,34.80
2018-08-03T17:23:57.975Z,35.20
2018-08-03T17:26:26.059Z,35.70
2018-08-03T17:28:54.130Z,35.80
2018-08-03T17:31:22.583Z,36.00
2018-08-03T17:33:50.683Z,36.20
2018-08-03T17:36:18.767Z,36.50
2018-08-03T17:38:46.827Z,36.30
2018-08-03T17:41:14.972Z,37.00
2018-08-03T17:43:43.050Z,36.30
2018-08-03T17:46:11.140Z,36.60
2018-08-03T17:48:39.210Z,37.10
2018-08-03T17:51:07.290Z,37.80
2018-08-03T17:53:35.358Z,38.40
2018-08-03T17:56:03.507Z,40.10
2018-08-03T17:58:31.546Z,40.20
2018-08-03T18:00:59.628Z,40.60
2018-08-03T18:03:27.712Z,41.00
2018-08-03T18:05:55.801Z,41.40
2018-08-03T18:08:24.180Z,42.10
2018-08-03T18:10:52.322Z,42.50
2018-08-03T18:13:20.515Z,43.20
2018-08-03T18:15:48.595Z,43.70
2018-08-03T18:18:16.653Z,44.10
2018-08-03T18:20:45.042Z,44.40
2018-08-03T18:23:13.108Z,44.90
2018-08-03T18:25:41.199Z,45.20
2018-08-03T18:28:09.719Z,45.30
2018-08-03T18:33:06.234Z,46.10
2018-08-03T18:35:34.343Z,46.50
2018-08-03T18:38:02.595Z,47.10
2018-08-03T18:40:30.738Z,47.70
2018-08-03T18:42:58.759Z,48.20
2018-08-03T18:45:26.950Z,48.60
2018-08-03T18:47:55.024Z,49.20
2018-08-03T18:50:23.157Z,49.60
2018-08-03T18:52:51.242Z,50.30
2018-08-03T18:55:19.947Z,50.50
2018-08-03T18:57:48.379Z,50.60
2018-08-03T19:00:16.483Z,50.80
2018-08-03T19:02:44.554Z,51.00
2018-08-03T19:05:12.779Z,51.40
2018-08-03T19:07:40.908Z,51.60
2018-08-03T19:12:36.938Z,51.90
2018-08-03T19:15:05.959Z,52.40
2018-08-03T19:17:34.073Z,52.40
2018-08-03T19:20:02.314Z,52.70
2018-08-03T19:22:30.818Z,52.60
2018-08-03T19:24:58.954Z,52.90
2018-08-03T19:27:27.171Z,52.80
2018-08-03T19:29:55.243Z,52.80
2018-08-03T19:32:23.410Z,52.80
2018-08-03T19:34:51.803Z,52.90
2018-08-03T19:37:19.898Z,52.90
2018-08-03T19:39:48.007Z,53.10
2018-08-03T19:42:16.079Z,53.20
2018-08-03T19:47:12.653Z,53.60
2018-08-03T19:49:40.677Z,53.70
2018-08-03T19:52:08.746Z,53.90
2018-08-03T19:54:36.802Z,54.00
2018-08-03T19:57:04.926Z,54.10
2018-08-03T19:59:33.014Z,54.10
2018-08-03T20:02:01.090Z,54.40
2018-08-03T20:04:29.187Z,54.40
2018-08-03T20:06:57.250Z,54.60
2018-08-03T20:09:25.334Z,54.80
2018-08-03T20:11:53.699Z,55.20
2018-08-03T20:14:21.811Z,55.10
2018-08-03T20:16:49.906Z,55.30
2018-08-03T20:19:17.991Z,55.50
2018-08-03T20:21:46.078Z,55.90
2018-08-03T20:24:14.478Z,56.00
2018-08-03T20:26:42.582Z,56.30
2018-08-03T20:29:10.680Z,56.40
2018-08-03T20:31:38.786Z,56.10
2018-08-03T20:34:06.901Z,56.80
2018-08-03T20:36:35.025Z,56.90
2018-08-03T20:39:03.419Z,57.60
2018-08-03T20:41:31.477Z,57.60
2018-08-03T20:43:59.546Z,58.30
2018-08-03T20:46:27.618Z,58.20
2018-08-03T20:48:55.702Z,58.20
2018-08-03T20:51:23.790Z,58.60
2018-08-03T20:53:51.866Z,58.70
2018-08-03T20:56:20.138Z,59.20
2018-08-03T20:58:48.190Z,59.10
2018-08-03T21:01:16.576Z,59.20
2018-08-03T21:03:44.633Z,59.30
2018-08-03T21:06:12.704Z,59.80
2018-08-03T21:08:40.926Z,60.60
2018-08-03T21:11:08.998Z,60.60
2018-08-03T21:13:37.330Z,60.80
2018-08-03T21:16:05.419Z,61.00
2018-08-03T21:18:33.519Z,61.40
2018-08-03T21:21:01.643Z,61.50
2018-08-03T21:23:29.742Z,61.80
2018-08-03T21:25:57.831Z,62.00
2018-08-03T21:28:25.902Z,62.20
2018-08-03T21:30:54.127Z,62.50
2018-08-03T21:33:22.277Z,62.90
2018-08-03T21:35:50.355Z,63.20
2018-08-03T21:40:46.545Z,64.60
2018-08-03T21:43:14.609Z,63.90
2018-08-03T21:45:42.807Z,64.00
2018-08-03T21:48:10.962Z,64.10
2018-08-03T21:50:39.041Z,64.90
2018-08-03T21:53:07.126Z,64.30
2018-08-03T21:55:35.291Z,64.30
2018-08-03T21:58:03.392Z,64.50
2018-08-03T22:00:31.442Z,64.60
2018-08-03T22:02:59.505Z,64.50
2018-08-03T22:05:27.665Z,64.60
2018-08-03T22:07:56.050Z,65.00
2018-08-03T22:10:24.141Z,64.70
2018-08-03T22:12:52.198Z,64.70
2018-08-03T22:15:20.270Z,64.50
2018-08-03T22:17:48.362Z,64.40
2018-08-03T22:20:16.911Z,64.30
2018-08-03T22:22:44.983Z,64.40
2018-08-03T22:25:13.155Z,64.30
2018-08-03T22:27:41.202Z,64.30
2018-08-03T22:30:09.275Z,64.20
2018-08-03T22:32:37.744Z,64.30
2018-08-03T22:35:06.032Z,64.20
2018-08-03T22:37:34.171Z,64.70
2018-08-03T22:40:02.252Z,64.40
2018-08-03T22:42:30.321Z,64.50
2018-08-03T22:44:58.406Z,64.40
2018-08-03T22:47:26.493Z,64.50
2018-08-03T22:49:54.642Z,64.30
2018-08-03T22:52:22.927Z,64.30
2018-08-03T22:54:51.177Z,64.30
2018-08-03T22:57:19.321Z,64.40
2018-08-03T22:59:47.373Z,64.50
2018-08-03T23:02:15.442Z,64.70
2018-08-03T23:04:43.540Z,64.80
2018-08-03T23:07:11.603Z,65.50
2018-08-03T23:09:39.697Z,65.50
2018-08-03T23:12:08.065Z,66.00
2018-08-03T23:14:36.197Z,66.00
2018-08-03T23:17:04.404Z,66.00
2018-08-03T23:19:32.482Z,66.00
2018-08-03T23:22:00.550Z,66.30
2018-08-03T23:24:28.621Z,66.50
2018-08-03T23:26:57.006Z,66.60
2018-08-03T23:29:25.078Z,66.70
2018-08-03T23:31:53.147Z,66.90
2018-08-03T23:34:21.534Z,67.00
2018-08-03T23:36:49.634Z,67.50
2018-08-03T23:39:17.707Z,67.70
2018-08-03T23:41:45.765Z,68.50
2018-08-03T23:44:13.892Z,68.40
2018-08-03T23:46:41.983Z,68.30
2018-08-03T23:49:10.036Z,68.40
2018-08-03T23:51:38.107Z,68.50
2018-08-03T23:54:06.251Z,68.50
2018-08-03T23:56:34.338Z,68.60
2018-08-03T23:59:02.413Z,68.60
